Time;durP1;ratioP1;P1;durP2;ratioP2;P2;SDS_P1;SDS_P2;PMS_P1;PMS_P2;Temp;Humidity;BMP_temperature;BMP_pressure;BME280_temperature;BME280_humidity;BME280_pressure;Samples;Min_cycle;Max_cycle;Signal;HPM_P1;HPM_P2
2022/07/16 00:04:14;;;;;;;3.15;1.40;;;19.60;99.90;;;;;;6228215;28;20398;-65
2022/07/16 00:07:16;;;;;;;2.60;1.10;;;19.60;99.90;;;;;;6256906;28;20049;-67
2022/07/16 00:10:18;;;;;;;2.65;1.15;;;19.70;99.90;;;;;;6242627;28;20065;-66
2022/07/16 00:13:20;;;;;;;3.53;1.42;;;19.60;99.90;;;;;;6232664;28;20057;-66
2022/07/16 00:16:22;;;;;;;2.80;1.40;;;19.80;99.90;;;;;;6235172;28;20116;-66
2022/07/16 00:19:25;;;;;;;4.38;1.60;;;19.60;99.90;;;;;;6251411;28;20326;-67
2022/07/16 00:22:27;;;;;;;2.67;1.10;;;19.60;99.90;;;;;;6229153;28;20487;-67
2022/07/16 00:25:29;;;;;;;3.15;1.75;;;19.70;99.90;;;;;;6235871;28;20495;-66
2022/07/16 00:28:31;;;;;;;1.85;1.10;;;19.70;99.90;;;;;;6240016;28;20052;-66
2022/07/16 00:31:33;;;;;;;3.13;1.63;;;19.80;99.90;;;;;;6240461;28;20048;-66
2022/07/16 00:34:36;;;;;;;3.42;1.13;;;19.50;99.90;;;;;;6243944;28;20045;-66
2022/07/16 00:37:38;;;;;;;4.55;1.75;;;19.40;99.90;;;;;;6231923;28;20049;-66
2022/07/16 00:40:40;;;;;;;1.30;1.05;;;19.40;99.90;;;;;;6227966;28;20046;-65
2022/07/16 00:43:46;;;;;;;1.48;1.13;;;19.60;99.90;;;;;;6233108;28;20052;-66
2022/07/16 00:46:50;;;;;;;2.20;1.13;;;19.60;99.90;;;;;;6237689;28;20132;-66
2022/07/16 00:49:53;;;;;;;3.40;1.80;;;19.60;99.90;;;;;;6227013;28;20049;-65
2022/07/16 00:52:56;;;;;;;3.10;1.73;;;19.60;99.90;;;;;;6246506;28;20057;-65
2022/07/16 00:55:57;;;;;;;4.45;2.30;;;19.10;99.90;;;;;;6243348;28;20062;-65
2022/07/16 00:58:59;;;;;;;4.18;1.70;;;18.80;99.90;;;;;;6237412;28;20054;-65
2022/07/16 01:02:01;;;;;;;5.78;2.65;;;18.30;99.90;;;;;;6242388;28;20053;-65
2022/07/16 01:05:06;;;;;;;3.58;2.63;;;18.00;99.90;;;;;;6244874;28;20050;-66
2022/07/16 01:08:08;;;;;;;4.85;2.83;;;17.90;99.90;;;;;;6241210;28;20049;-64
2022/07/16 01:11:12;;;;;;;5.07;3.20;;;17.50;99.90;;;;;;6232441;28;20052;-64
2022/07/16 01:14:15;;;;;;;4.35;2.33;;;17.20;99.90;;;;;;6237183;28;20052;-65
2022/07/16 01:17:17;;;;;;;4.63;3.33;;;16.90;99.90;;;;;;6242281;28;20407;-65
2022/07/16 01:20:20;;;;;;;5.38;2.13;;;16.70;99.90;;;;;;6230077;28;20037;-66
2022/07/16 01:23:24;;;;;;;;;;;16.80;99.90;;;;;;6241993;28;20507;-65
2022/07/16 01:26:26;;;;;;;4.85;2.60;;;16.80;99.90;;;;;;6257555;28;19921;-65
2022/07/16 01:29:29;;;;;;;4.45;3.35;;;17.10;99.90;;;;;;6244163;28;20049;-65
2022/07/16 01:32:31;;;;;;;4.72;2.60;;;17.00;99.90;;;;;;6255532;28;20063;-66
2022/07/16 01:35:33;;;;;;;6.38;3.10;;;16.80;99.90;;;;;;6238764;28;20042;-65
2022/07/16 01:38:38;;;;;;;5.18;2.83;;;16.80;99.90;;;;;;6239541;28;20077;-66
2022/07/16 01:41:40;;;;;;;5.55;3.30;;;16.90;99.90;;;;;;6240323;28;20041;-66
2022/07/16 01:44:42;;;;;;;5.88;3.50;;;16.80;99.90;;;;;;6240245;28;20141;-66
2022/07/16 01:47:44;;;;;;;4.30;2.00;;;16.80;99.90;;;;;;6235125;28;20049;-67
2022/07/16 01:50:46;;;;;;;7.00;3.40;;;16.80;99.90;;;;;;6261078;28;20055;-66
2022/07/16 01:53:49;;;;;;;2.22;1.70;;;16.90;99.90;;;;;;6243915;28;20046;-66
2022/07/16 01:56:51;;;;;;;2.58;1.42;;;16.80;99.90;;;;;;6230441;28;20496;-66
2022/07/16 01:59:53;;;;;;;5.03;2.50;;;17.00;99.90;;;;;;6262965;28;20394;-66
2022/07/16 02:02:55;;;;;;;3.13;1.60;;;17.00;99.90;;;;;;6237936;28;20056;-66
2022/07/16 02:05:57;;;;;;;5.07;1.77;;;16.90;99.90;;;;;;6249310;28;20053;-66
2022/07/16 02:09:00;;;;;;;4.38;1.58;;;16.80;99.90;;;;;;6273258;28;20172;-66
2022/07/16 02:12:02;;;;;;;5.10;1.75;;;17.00;99.90;;;;;;6244923;28;20057;-66
2022/07/16 02:15:06;;;;;;;6.47;1.77;;;16.90;99.90;;;;;;6261903;28;20049;-66
2022/07/16 02:18:08;;;;;;;4.93;1.60;;;16.80;99.90;;;;;;6230340;28;20053;-65
2022/07/16 02:21:10;;;;;;;6.85;1.80;;;16.70;99.90;;;;;;6242636;28;20049;-65
2022/07/16 02:24:13;;;;;;;2.85;1.20;;;16.50;99.90;;;;;;6233899;28;20500;-65
2022/07/16 02:27:15;;;;;;;6.35;1.98;;;16.40;99.90;;;;;;6247466;28;20057;-66
2022/07/16 02:30:17;;;;;;;4.40;1.35;;;16.40;99.90;;;;;;6236237;28;20064;-66
2022/07/16 02:33:21;;;;;;;6.32;1.85;;;16.30;99.90;;;;;;6239795;28;20045;-66
2022/07/16 02:36:22;;;;;;;3.10;1.70;;;16.40;99.90;;;;;;6229717;28;20056;-66
2022/07/16 02:39:26;;;;;;;3.85;1.42;;;16.30;99.90;;;;;;6247058;28;20048;-65
2022/07/16 02:42:28;;;;;;;8.07;1.60;;;16.30;99.90;;;;;;6244910;28;20041;-65
2022/07/16 02:45:30;;;;;;;2.95;1.50;;;16.40;99.90;;;;;;6228052;28;20058;-65
2022/07/16 02:48:32;;;;;;;8.60;2.50;;;16.30;99.90;;;;;;6233027;28;20049;-65
2022/07/16 02:51:34;;;;;;;5.68;1.92;;;16.20;99.90;;;;;;6243014;28;20491;-65
2022/07/16 02:54:37;;;;;;;6.85;1.90;;;16.00;99.90;;;;;;6239443;28;20046;-65
2022/07/16 02:57:39;;;;;;;6.25;1.83;;;15.90;99.90;;;;;;6251662;28;20057;-65
2022/07/16 03:00:41;;;;;;;4.32;1.45;;;15.80;99.90;;;;;;6227869;28;20038;-65
2022/07/16 03:03:43;;;;;;;5.25;1.48;;;15.70;99.90;;;;;;6226494;28;20583;-65
2022/07/16 03:06:45;;;;;;;4.75;1.40;;;15.80;99.90;;;;;;6238843;28;20048;-65
2022/07/16 03:09:48;;;;;;;7.75;2.15;;;16.00;99.90;;;;;;6224773;28;20061;-65
2022/07/16 03:12:50;;;;;;;3.55;1.20;;;16.10;99.90;;;;;;6232746;28;20064;-65
2022/07/16 03:15:53;;;;;;;5.07;1.50;;;16.00;99.90;;;;;;6235298;28;20057;-65
2022/07/16 03:18:56;;;;;;;6.53;1.90;;;16.20;99.90;;;;;;6235075;28;20410;-65
2022/07/16 03:21:58;;;;;;;5.57;1.50;;;16.30;99.90;;;;;;6240085;28;20046;-65
2022/07/16 03:25:01;;;;;;;6.05;1.90;;;16.10;99.90;;;;;;6226944;28;20044;-65
2022/07/16 03:28:03;;;;;;;5.63;1.67;;;16.00;99.90;;;;;;6234091;28;20084;-65
2022/07/16 03:31:05;;;;;;;4.70;1.42;;;15.90;99.90;;;;;;6231569;28;20045;-66
2022/07/16 03:34:07;;;;;;;6.03;1.65;;;15.80;99.90;;;;;;6226779;28;20049;-65
2022/07/16 03:37:09;;;;;;;6.90;1.90;;;15.90;99.90;;;;;;6229122;28;20046;-66
2022/07/16 03:40:13;;;;;;;6.88;1.92;;;15.80;99.90;;;;;;6229061;28;20183;-65
2022/07/16 03:43:14;;;;;;;;;;;15.70;99.90;;;;;;6231571;28;20041;-66
2022/07/16 03:46:16;;;;;;;4.00;1.25;;;15.50;99.90;;;;;;6234588;28;19921;-65
2022/07/16 03:49:18;;;;;;;7.88;1.50;;;15.50;99.90;;;;;;6243001;28;20053;-66
2022/07/16 03:52:20;;;;;;;8.65;1.77;;;15.40;99.90;;;;;;6232608;28;20049;-65
2022/07/16 03:55:24;;;;;;;3.60;1.30;;;15.40;99.90;;;;;;6225672;28;20052;-66
2022/07/16 03:58:26;;;;;;;3.40;1.42;;;15.40;99.90;;;;;;6243424;28;20053;-66
2022/07/16 04:01:28;;;;;;;4.47;1.40;;;15.30;99.90;;;;;;6225977;28;20046;-65
2022/07/16 04:04:30;;;;;;;5.18;1.60;;;15.40;99.90;;;;;;6266321;28;20046;-65
2022/07/16 04:07:32;;;;;;;3.42;1.40;;;15.50;99.90;;;;;;6237835;28;20049;-66
2022/07/16 04:10:35;;;;;;;2.80;1.42;;;15.50;99.90;;;;;;6243571;28;20502;-65
2022/07/16 04:13:38;;;;;;;6.03;1.90;;;15.50;99.90;;;;;;6242830;28;20060;-66
2022/07/16 04:16:41;;;;;;;5.03;1.30;;;15.50;99.90;;;;;;6253667;28;20080;-66
2022/07/16 04:19:43;;;;;;;6.97;2.00;;;15.50;99.90;;;;;;6222042;28;20480;-66
2022/07/16 04:22:45;;;;;;;7.43;2.03;;;15.70;99.90;;;;;;6231368;28;20046;-66
2022/07/16 04:25:48;;;;;;;5.93;1.83;;;15.80;99.90;;;;;;6231698;28;20062;-66
2022/07/16 04:28:50;;;;;;;6.85;2.00;;;15.70;99.90;;;;;;6234384;28;20045;-66
2022/07/16 04:31:52;;;;;;;6.20;2.30;;;15.50;99.90;;;;;;6241763;28;20057;-67
2022/07/16 04:34:54;;;;;;;3.38;1.40;;;15.50;99.90;;;;;;6239613;28;20414;-66
2022/07/16 04:37:56;;;;;;;6.18;1.75;;;15.60;99.90;;;;;;6231709;28;20410;-66
2022/07/16 04:40:59;;;;;;;7.97;2.30;;;15.70;99.90;;;;;;6242366;28;20063;-66
2022/07/16 04:44:01;;;;;;;10.13;2.40;;;15.60;99.90;;;;;;6241792;28;20124;-66
2022/07/16 04:47:03;;;;;;;3.70;1.05;;;15.70;99.90;;;;;;6236739;28;20613;-66
2022/07/16 04:50:06;;;;;;;5.72;2.15;;;15.70;99.90;;;;;;6240435;28;20054;-66
2022/07/16 04:53:08;;;;;;;6.82;2.13;;;15.60;99.90;;;;;;6236715;28;20060;-66
2022/07/16 04:56:12;;;;;;;5.72;2.13;;;15.60;99.90;;;;;;6231501;28;20476;-66
2022/07/16 04:59:13;;;;;;;9.88;2.28;;;15.50;99.90;;;;;;6233797;28;20049;-66
2022/07/16 05:05:37;;;;;;;9.40;2.70;;;15.10;99.90;;;;;;6250561;28;20466;-66
2022/07/16 05:08:39;;;;;;;6.43;2.28;;;15.00;99.90;;;;;;6231111;28;20045;-66
2022/07/16 05:11:42;;;;;;;14.48;2.40;;;14.90;99.90;;;;;;6230668;28;20125;-66
2022/07/16 05:14:44;;;;;;;10.20;2.30;;;14.70;99.90;;;;;;6272490;28;20056;-66
2022/07/16 05:17:46;;;;;;;7.90;2.08;;;14.60;99.90;;;;;;6246632;28;20049;-65
2022/07/16 05:20:48;;;;;;;9.75;2.38;;;14.60;99.90;;;;;;6235370;28;20510;-65
2022/07/16 05:23:50;;;;;;;10.50;2.20;;;14.50;99.90;;;;;;6227095;28;20058;-66
2022/07/16 05:26:53;;;;;;;10.48;2.60;;;14.60;99.90;;;;;;6237272;28;20057;-66
2022/07/16 05:29:55;;;;;;;8.43;2.05;;;14.60;99.90;;;;;;6269284;28;20057;-66
2022/07/16 05:32:57;;;;;;;9.13;2.00;;;14.70;99.90;;;;;;6226058;28;20050;-65
2022/07/16 05:35:59;;;;;;;14.35;2.42;;;14.70;99.90;;;;;;6239171;28;20050;-66
2022/07/16 05:39:01;;;;;;;9.02;1.83;;;14.70;99.90;;;;;;6229559;28;20065;-66
2022/07/16 05:42:04;;;;;;;10.15;1.60;;;14.80;99.90;;;;;;6268947;28;20049;-65
2022/07/16 05:45:07;;;;;;;8.88;1.77;;;14.90;99.90;;;;;;6269422;28;20053;-66
2022/07/16 05:48:09;;;;;;;9.48;1.63;;;14.90;99.90;;;;;;6244422;28;20053;-66
2022/07/16 05:51:11;;;;;;;8.40;1.73;;;15.00;99.90;;;;;;6240655;28;20045;-66
2022/07/16 05:54:12;;;;;;;9.07;1.60;;;14.90;99.90;;;;;;6249677;28;20156;-66
2022/07/16 05:57:16;;;;;;;6.65;1.50;;;15.00;99.90;;;;;;6256568;28;20068;-66
2022/07/16 06:00:18;;;;;;;6.50;1.60;;;15.00;99.90;;;;;;6236934;28;22664;-66
2022/07/16 06:03:21;;;;;;;7.63;1.60;;;15.10;99.90;;;;;;6243394;28;20045;-66
2022/07/16 06:06:23;;;;;;;11.43;1.60;;;15.10;99.90;;;;;;6247496;28;20496;-66
2022/07/16 06:09:25;;;;;;;9.30;1.50;;;15.10;99.90;;;;;;6277577;28;20049;-66
2022/07/16 06:12:28;;;;;;;10.82;1.90;;;15.10;99.90;;;;;;6239351;28;20045;-66
2022/07/16 06:15:30;;;;;;;9.68;1.45;;;15.10;99.90;;;;;;6242045;28;20054;-66
2022/07/16 06:18:32;;;;;;;8.00;1.30;;;15.10;99.90;;;;;;6225430;28;20050;-66
2022/07/16 06:21:34;;;;;;;10.23;1.33;;;15.10;99.90;;;;;;6237808;28;20449;-66
2022/07/16 06:24:36;;;;;;;10.88;1.63;;;15.20;99.90;;;;;;6244135;28;20041;-66
2022/07/16 06:27:43;;;;;;;7.40;1.13;;;15.30;99.90;;;;;;6240970;28;20962;-66
2022/07/16 06:30:45;;;;;;;6.82;1.25;;;15.30;99.90;;;;;;6251682;28;20060;-66
2022/07/16 06:33:47;;;;;;;11.10;1.70;;;15.40;99.90;;;;;;6238583;28;20050;-65
2022/07/16 06:36:49;;;;;;;6.50;1.05;;;15.60;99.90;;;;;;6246872;28;20042;-66
2022/07/16 06:39:51;;;;;;;7.93;1.08;;;15.70;99.90;;;;;;6247299;28;20475;-66
2022/07/16 06:42:54;;;;;;;7.85;1.00;;;15.80;99.90;;;;;;6245502;28;20064;-66
2022/07/16 06:45:56;;;;;;;6.20;1.00;;;15.80;99.90;;;;;;6256762;28;20419;-66
2022/07/16 06:48:58;;;;;;;7.35;1.20;;;15.80;99.90;;;;;;6257623;28;20503;-66
2022/07/16 06:51:59;;;;;;;5.65;1.00;;;15.80;99.90;;;;;;6240282;28;20072;-66
2022/07/16 06:55:01;;;;;;;6.78;1.08;;;15.80;99.90;;;;;;6228204;28;20045;-65
2022/07/16 06:58:05;;;;;;;7.65;1.20;;;15.80;99.90;;;;;;6229299;28;20049;-66
2022/07/16 07:01:08;;;;;;;5.38;1.00;;;15.90;99.90;;;;;;6245385;28;20053;-66
2022/07/16 07:04:10;;;;;;;6.75;1.25;;;16.00;99.90;;;;;;6226057;28;20072;-66
2022/07/16 07:07:12;;;;;;;6.05;1.00;;;16.00;99.90;;;;;;6243076;28;20490;-66
2022/07/16 07:10:14;;;;;;;5.75;1.40;;;16.00;99.90;;;;;;6236839;28;20049;-65
2022/07/16 07:13:17;;;;;;;5.70;0.98;;;16.10;99.90;;;;;;6241490;28;20042;-66
2022/07/16 07:16:19;;;;;;;7.05;1.50;;;16.50;99.90;;;;;;6245921;28;20041;-65
2022/07/16 07:19:21;;;;;;;4.90;1.00;;;17.20;99.90;;;;;;6244202;28;20049;-65
2022/07/16 07:22:23;;;;;;;6.10;1.20;;;17.60;99.90;;;;;;6238456;28;20056;-65
2022/07/16 07:25:25;;;;;;;9.40;1.30;;;17.80;99.90;;;;;;6239468;28;20418;-65
2022/07/16 07:28:29;;;;;;;7.25;1.27;;;18.20;99.90;;;;;;6255335;28;20544;-65
2022/07/16 07:31:31;;;;;;;5.80;1.20;;;18.30;99.90;;;;;;6224843;28;20057;-65
2022/07/16 07:34:33;;;;;;;10.10;1.35;;;18.50;99.90;;;;;;6239656;28;20052;-65
2022/07/16 07:37:35;;;;;;;6.35;1.30;;;18.60;99.90;;;;;;6237732;28;20049;-65
2022/07/16 07:40:37;;;;;;;6.40;1.30;;;18.40;99.90;;;;;;6245762;28;20495;-65
2022/07/16 07:43:40;;;;;;;4.30;1.55;;;18.20;99.90;;;;;;6252035;28;20050;-66
2022/07/16 07:46:42;;;;;;;5.70;1.25;;;18.40;99.90;;;;;;6237888;28;20050;-65
2022/07/16 07:49:44;;;;;;;5.20;1.30;;;18.90;99.40;;;;;;6234125;28;20053;-65
2022/07/16 07:52:46;;;;;;;3.75;0.90;;;19.10;98.60;;;;;;6267186;28;20056;-66
2022/07/16 07:55:48;;;;;;;4.78;0.90;;;19.40;97.50;;;;;;6244257;28;20053;-65
2022/07/16 07:58:51;;;;;;;5.72;0.73;;;19.50;97.90;;;;;;6234309;28;20054;-65
2022/07/16 08:01:54;;;;;;;4.07;1.02;;;19.30;98.70;;;;;;6240071;28;20048;-65
2022/07/16 08:04:56;;;;;;;5.68;1.15;;;18.90;99.00;;;;;;6253171;28;20330;-65
2022/07/16 08:07:57;;;;;;;5.00;1.00;;;18.50;98.90;;;;;;6239916;28;20056;-65
2022/07/16 08:11:00;;;;;;;6.03;1.33;;;18.30;99.60;;;;;;6230622;28;20052;-64
2022/07/16 08:14:03;;;;;;;6.67;1.30;;;18.20;99.90;;;;;;6238389;28;20128;-65
2022/07/16 08:17:05;;;;;;;5.13;1.10;;;18.10;99.90;;;;;;6228553;28;20488;-65
2022/07/16 08:20:09;;;;;;;7.80;1.23;;;18.20;99.90;;;;;;6223772;28;20053;-65
2022/07/16 08:23:11;;;;;;;5.55;1.15;;;18.30;99.90;;;;;;6229998;28;20041;-65
2022/07/16 08:26:12;;;;;;;4.07;0.90;;;18.30;99.90;;;;;;6229592;28;20052;-65
2022/07/16 08:29:15;;;;;;;9.02;1.17;;;18.20;99.90;;;;;;6234519;28;20073;-65
2022/07/16 08:32:18;;;;;;;9.00;2.25;;;18.10;99.90;;;;;;6268753;28;20050;-65
2022/07/16 08:35:20;;;;;;;4.88;1.25;;;17.80;99.90;;;;;;6230614;28;20045;-65
2022/07/16 08:38:25;;;;;;;7.43;1.95;;;17.60;99.90;;;;;;6244419;28;20045;-66
2022/07/16 08:41:28;;;;;;;4.95;1.30;;;17.40;99.90;;;;;;6243984;28;20103;-66
2022/07/16 08:44:32;;;;;;;7.38;1.02;;;17.50;99.90;;;;;;6230348;28;20541;-66
2022/07/16 08:47:35;;;;;;;5.93;1.33;;;17.40;99.90;;;;;;6246176;28;20049;-64
2022/07/16 08:50:37;;;;;;;7.88;1.55;;;17.50;99.90;;;;;;6245553;28;20049;-65
2022/07/16 08:53:41;;;;;;;6.93;1.10;;;17.50;99.90;;;;;;6232789;28;20046;-64
2022/07/16 08:56:44;;;;;;;6.00;1.20;;;17.40;99.90;;;;;;6244651;28;20052;-65
2022/07/16 08:59:47;;;;;;;8.95;1.50;;;17.50;99.90;;;;;;6240078;28;20544;-67
2022/07/16 09:02:49;;;;;;;5.18;1.10;;;17.70;99.90;;;;;;6242555;28;20147;-65
2022/07/16 09:05:51;;;;;;;91.53;16.73;;;17.80;99.90;;;;;;6239709;28;20058;-65
2022/07/16 09:08:55;;;;;;;100.53;9.20;;;18.10;99.90;;;;;;6245418;28;20049;-65
2022/07/16 09:11:57;;;;;;;8.45;1.25;;;18.60;99.90;;;;;;6255379;28;20050;-66
2022/07/16 09:15:00;;;;;;;9.02;1.20;;;18.40;99.90;;;;;;6236091;28;20057;-66
2022/07/16 09:18:18;;;;;;;9.85;1.27;;;18.10;99.90;;;;;;6249314;28;20417;-66
2022/07/16 09:21:20;;;;;;;10.88;1.75;;;18.10;99.90;;;;;;6238746;28;20499;-66
2022/07/16 09:24:31;;;;;;;6.68;1.63;;;18.50;99.90;;;;;;6229045;28;20506;-66
2022/07/16 09:27:36;;;;;;;9.55;2.20;;;18.60;99.90;;;;;;6242347;28;21346;-66
2022/07/16 09:30:39;;;;;;;10.10;2.00;;;18.60;99.90;;;;;;6240919;28;20053;-66
2022/07/16 09:33:41;;;;;;;18.92;2.58;;;18.50;99.90;;;;;;6244355;28;20502;-65
2022/07/16 09:36:58;;;;;;;7.13;1.20;;;18.20;99.90;;;;;;6242723;28;20046;-65
2022/07/16 09:40:02;;;;;;;8.18;1.70;;;18.20;99.90;;;;;;6237890;28;21081;-66
2022/07/16 09:43:16;;;;;;;6.13;1.63;;;17.80;99.90;;;;;;6231636;28;20132;-65
2022/07/16 09:46:22;;;;;;;5.57;1.75;;;17.70;99.90;;;;;;6258141;28;20049;-65
2022/07/16 09:49:25;;;;;;;7.97;1.40;;;17.80;99.90;;;;;;6270369;28;20041;-67
2022/07/16 09:52:31;;;;;;;7.15;1.70;;;18.00;99.90;;;;;;6245419;28;20041;-66
2022/07/16 09:55:33;;;;;;;9.35;1.60;;;18.00;99.90;;;;;;6246900;28;20095;-66
2022/07/16 09:58:36;;;;;;;5.03;1.48;;;18.40;99.90;;;;;;6235349;28;20046;-67
2022/07/16 10:01:40;;;;;;;6.72;1.50;;;18.50;99.90;;;;;;6227102;28;20037;-67
2022/07/16 10:04:42;;;;;;;4.45;1.27;;;18.60;99.90;;;;;;6228507;28;20058;-65
2022/07/16 10:07:44;;;;;;;9.82;1.60;;;18.60;99.90;;;;;;6240413;28;20072;-65
2022/07/16 10:10:47;;;;;;;5.63;1.40;;;18.70;99.90;;;;;;6225495;28;20056;-65
2022/07/16 10:13:50;;;;;;;6.80;1.42;;;18.90;99.90;;;;;;6248828;28;20113;-65
2022/07/16 10:17:00;;;;;;;4.38;1.10;;;19.10;99.90;;;;;;6248614;28;20145;-65
2022/07/16 10:20:05;;;;;;;7.45;1.40;;;18.90;99.90;;;;;;6236753;28;20050;-65
2022/07/16 10:23:07;;;;;;;6.53;1.40;;;18.60;99.90;;;;;;6239953;28;20084;-65
2022/07/16 10:26:15;;;;;;;5.70;1.30;;;18.40;99.90;;;;;;6247607;28;20049;-65
2022/07/16 10:29:17;;;;;;;7.68;1.58;;;18.60;99.90;;;;;;6228761;28;20046;-65
2022/07/16 10:32:29;;;;;;;5.70;1.55;;;19.10;98.40;;;;;;6249838;28;20053;-65
2022/07/16 10:35:32;;;;;;;6.15;1.45;;;19.40;99.90;;;;;;6245403;28;20510;-65
2022/07/16 10:38:34;;;;;;;4.80;1.75;;;19.50;99.90;;;;;;6249333;28;20050;-65
2022/07/16 10:41:47;;;;;;;6.82;2.10;;;19.20;99.90;;;;;;6248961;28;20482;-65
2022/07/16 10:44:50;;;;;;;7.20;3.10;;;18.80;99.90;;;;;;6248004;28;20099;-65
2022/07/16 10:47:57;;;;;;;4.30;1.80;;;19.00;99.90;;;;;;6247668;28;20089;-65
2022/07/16 10:51:16;;;;;;;8.50;2.30;;;19.30;99.90;;;;;;6247973;28;20056;-65
2022/07/16 10:54:21;;;;;;;7.38;2.53;;;19.20;99.90;;;;;;6245036;28;20057;-66
2022/07/16 10:57:34;;;;;;;7.38;2.63;;;19.00;99.90;;;;;;6222781;28;20057;-66
2022/07/16 11:00:36;;;;;;;10.18;1.95;;;18.80;99.90;;;;;;6222989;28;20050;-66
2022/07/16 11:03:40;;;;;;;5.55;1.60;;;19.00;99.90;;;;;;6224264;28;20053;-68
2022/07/16 11:06:49;;;;;;;7.35;1.80;;;19.10;99.90;;;;;;6223212;28;20057;-65
2022/07/16 11:09:54;;;;;;;8.15;2.58;;;18.90;99.90;;;;;;6223633;28;20061;-65
2022/07/16 11:12:57;;;;;;;8.23;2.30;;;19.00;99.90;;;;;;6247770;28;20395;-65
2022/07/16 11:16:08;;;;;;;5.38;2.28;;;18.70;99.90;;;;;;6248363;28;20410;-65
2022/07/16 11:19:11;;;;;;;8.05;2.20;;;18.20;99.90;;;;;;6235076;28;20136;-65
2022/07/16 11:22:13;;;;;;;4.95;1.48;;;18.00;99.90;;;;;;6223612;28;20442;-65
2022/07/16 11:25:15;;;;;;;6.95;1.83;;;18.30;99.90;;;;;;6231544;28;20045;-65
2022/07/16 11:28:17;;;;;;;8.25;1.60;;;18.40;99.90;;;;;;6223487;28;20245;-65
2022/07/16 11:31:25;;;;;;;7.07;2.10;;;18.40;99.90;;;;;;6223544;28;20057;-65
2022/07/16 11:34:33;;;;;;;5.65;1.38;;;18.50;99.90;;;;;;6223328;28;20060;-65
2022/07/16 11:37:48;;;;;;;7.13;1.40;;;18.70;99.90;;;;;;6222511;28;20606;-65
2022/07/16 11:40:50;;;;;;;9.63;2.53;;;18.70;99.90;;;;;;6238332;28;20241;-65
2022/07/16 11:43:52;;;;;;;7.97;2.38;;;18.60;99.90;;;;;;6223549;28;20046;-65
2022/07/16 11:46:56;;;;;;;9.18;1.95;;;18.70;99.90;;;;;;6223106;28;20495;-65
2022/07/16 11:49:59;;;;;;;7.70;2.83;;;18.90;99.90;;;;;;6236972;28;20049;-65
2022/07/16 11:53:01;;;;;;;7.60;2.38;;;18.70;99.90;;;;;;6221792;28;20416;-65
2022/07/16 11:56:03;;;;;;;8.77;2.85;;;18.40;99.90;;;;;;6238508;28;20407;-65
2022/07/16 11:59:18;;;;;;;6.35;2.13;;;18.20;99.90;;;;;;6221586;28;20144;-65
2022/07/16 12:02:22;;;;;;;6.25;2.20;;;18.30;99.90;;;;;;6223458;28;20041;-65
2022/07/16 12:05:29;;;;;;;5.60;1.88;;;18.70;99.90;;;;;;6237831;28;20499;-65
2022/07/16 12:08:32;;;;;;;7.82;2.80;;;19.00;99.40;;;;;;6222883;28;20053;-65
2022/07/16 12:11:35;;;;;;;7.40;2.53;;;18.80;99.90;;;;;;6222875;28;20057;-65
2022/07/16 12:14:50;;;;;;;9.23;3.70;;;18.80;99.90;;;;;;6221690;28;20495;-66
2022/07/16 12:17:56;;;;;;;7.15;2.10;;;19.10;99.90;;;;;;6222840;28;20057;-66
2022/07/16 12:21:28;;;;;;;7.43;2.30;;;19.30;99.90;;;;;;6222591;28;20057;-65
2022/07/16 12:24:30;;;;;;;7.40;1.90;;;19.00;99.90;;;;;;6222610;28;20388;-65
2022/07/16 12:27:45;;;;;;;9.02;2.33;;;19.10;99.90;;;;;;6222324;28;20503;-65
2022/07/16 12:30:53;;;;;;;8.77;2.92;;;19.10;99.90;;;;;;6221821;28;20049;-65
2022/07/16 12:33:55;;;;;;;7.28;2.30;;;19.10;99.90;;;;;;6222266;28;20498;-65
2022/07/16 12:36:59;;;;;;;7.22;1.52;;;19.20;99.90;;;;;;6222601;28;20046;-65
2022/07/16 12:40:12;;;;;;;3.72;1.70;;;19.20;99.10;;;;;;6243595;28;20064;-65
2022/07/16 12:43:14;;;;;;;5.87;1.70;;;19.00;98.60;;;;;;6246774;28;20042;-65
2022/07/16 12:46:18;;;;;;;9.52;2.13;;;19.40;99.20;;;;;;6246618;28;20441;-65
2022/07/16 12:49:22;;;;;;;7.78;1.50;;;19.60;98.90;;;;;;6249364;28;20059;-65
2022/07/16 12:52:25;;;;;;;6.35;1.90;;;19.30;98.60;;;;;;6240719;28;20050;-65
2022/07/16 12:58:49;;;;;;;6.63;2.00;;;19.50;99.90;;;;;;6227408;28;20054;-64
2022/07/16 13:01:52;;;;;;;8.60;1.80;;;19.70;98.30;;;;;;6226995;28;20391;-65
2022/07/16 13:04:54;;;;;;;6.00;2.43;;;18.90;99.30;;;;;;6227252;28;20501;-65
2022/07/16 13:07:58;;;;;;;6.05;1.40;;;18.80;99.90;;;;;;6226949;28;20472;-65
2022/07/16 13:11:00;;;;;;;5.95;1.38;;;18.90;98.50;;;;;;6225965;28;20057;-65
2022/07/16 13:14:02;;;;;;;3.45;1.95;;;19.00;97.70;;;;;;6225398;28;20058;-65
2022/07/16 13:17:04;;;;;;;6.87;1.83;;;19.10;99.90;;;;;;6232616;28;20045;-65
2022/07/16 13:20:07;;;;;;;7.35;3.10;;;19.10;99.40;;;;;;6226047;28;20522;-65
2022/07/16 13:23:11;;;;;;;6.05;2.45;;;19.50;99.90;;;;;;6226168;28;20045;-65
2022/07/16 13:26:13;;;;;;;5.90;2.17;;;19.90;98.70;;;;;;6226831;28;20065;-65
2022/07/16 13:29:15;;;;;;;6.60;2.58;;;20.20;99.10;;;;;;6226828;28;20053;-65
2022/07/16 13:32:17;;;;;;;7.10;2.25;;;20.00;99.50;;;;;;6241205;28;20058;-65
2022/07/16 13:35:19;;;;;;;5.60;1.80;;;19.70;99.90;;;;;;6226151;28;20046;-65
2022/07/16 13:38:22;;;;;;;6.35;1.40;;;19.50;98.30;;;;;;6226080;28;20049;-64
2022/07/16 13:41:24;;;;;;;5.65;1.80;;;19.20;98.00;;;;;;6243820;28;20072;-65
2022/07/16 13:44:26;;;;;;;8.07;2.42;;;19.20;99.60;;;;;;6249670;28;20052;-65
2022/07/16 13:47:28;;;;;;;7.00;2.78;;;19.10;99.90;;;;;;6235116;28;20414;-65
2022/07/16 13:50:31;;;;;;;4.18;1.98;;;19.30;99.90;;;;;;6226085;28;20041;-65
2022/07/16 13:53:34;;;;;;;5.25;1.98;;;19.70;99.90;;;;;;6224719;28;20101;-65
2022/07/16 13:56:37;;;;;;;5.32;2.13;;;20.10;99.90;;;;;;6258093;28;20423;-65
2022/07/16 13:59:38;;;;;;;5.38;1.50;;;20.40;99.70;;;;;;6224355;28;20544;-65
2022/07/16 14:02:40;;;;;;;9.48;2.63;;;20.10;97.70;;;;;;6225347;28;20045;-65
2022/07/16 14:05:43;;;;;;;7.85;1.83;;;19.80;99.60;;;;;;6225451;28;20050;-65
2022/07/16 14:08:46;;;;;;;7.43;2.67;;;19.70;99.10;;;;;;6225347;28;20042;-65
2022/07/16 14:11:48;;;;;;;5.15;2.78;;;19.60;99.00;;;;;;6228430;28;20046;-65
2022/07/16 14:14:50;;;;;;;6.97;2.35;;;19.50;99.40;;;;;;6224762;28;20050;-65
2022/07/16 14:17:56;;;;;;;6.28;3.00;;;19.10;98.70;;;;;;6225477;28;20057;-65
2022/07/16 14:20:58;;;;;;;8.85;3.42;;;18.80;99.20;;;;;;6225253;28;20096;-65
2022/07/16 14:24:01;;;;;;;7.93;4.63;;;18.70;99.90;;;;;;6225291;28;20052;-65
2022/07/16 14:27:03;;;;;;;3.80;1.70;;;18.90;99.90;;;;;;6257243;28;20083;-65
2022/07/16 14:30:06;;;;;;;6.28;3.90;;;19.30;99.90;;;;;;6223748;28;20050;-65
2022/07/16 14:33:09;;;;;;;9.40;3.97;;;19.60;99.90;;;;;;6239989;28;20061;-65
2022/07/16 14:36:11;;;;;;;4.90;4.28;;;19.60;99.20;;;;;;6224825;28;20049;-65
2022/07/16 14:39:14;;;;;;;7.32;3.47;;;19.20;99.30;;;;;;6224735;28;20050;-65
2022/07/16 14:42:16;;;;;;;4.65;1.75;;;19.10;99.90;;;;;;6242857;28;20046;-65
2022/07/16 14:45:21;;;;;;;5.28;1.70;;;19.10;99.90;;;;;;6248179;28;20056;-65
2022/07/16 14:48:23;;;;;;;6.50;5.10;;;19.20;99.90;;;;;;6247187;28;20033;-65
2022/07/16 14:51:25;;;;;;;11.60;4.50;;;19.50;99.90;;;;;;6248782;28;20132;-65
2022/07/16 14:54:28;;;;;;;10.73;4.85;;;19.30;99.10;;;;;;6248799;28;20403;-65
2022/07/16 14:57:30;;;;;;;6.22;4.53;;;19.00;99.20;;;;;;6249095;28;20064;-65
2022/07/16 15:00:32;;;;;;;5.90;4.45;;;19.20;99.60;;;;;;6248624;28;20053;-65
2022/07/16 15:03:34;;;;;;;6.20;4.57;;;19.60;99.40;;;;;;6246968;28;20056;-64
2022/07/16 15:06:36;;;;;;;4.72;3.75;;;19.80;99.20;;;;;;6247220;28;20060;-65
2022/07/16 15:09:39;;;;;;;4.70;3.80;;;19.80;98.30;;;;;;6242322;28;20415;-65
2022/07/16 15:12:41;;;;;;;7.25;2.75;;;19.80;98.50;;;;;;6239468;28;20407;-65
2022/07/16 15:15:43;;;;;;;7.47;3.17;;;19.70;97.70;;;;;;6223784;28;20046;-65
2022/07/16 15:18:45;;;;;;;7.35;3.20;;;19.40;98.20;;;;;;6239003;28;20488;-65
2022/07/16 15:21:47;;;;;;;5.50;3.17;;;19.10;99.40;;;;;;6238985;28;20054;-65
2022/07/16 15:24:50;;;;;;;5.65;2.90;;;19.30;98.90;;;;;;6223659;28;20448;-65
2022/07/16 15:27:52;;;;;;;9.45;2.95;;;19.40;98.30;;;;;;6223924;28;20046;-65
2022/07/16 15:30:55;;;;;;;8.85;2.30;;;19.70;98.10;;;;;;6256175;28;20054;-65
2022/07/16 15:33:58;;;;;;;8.13;2.47;;;19.50;97.00;;;;;;6248026;28;20045;-65
2022/07/16 15:36:59;;;;;;;7.37;3.43;;;19.10;97.90;;;;;;6247338;28;20053;-65
2022/07/16 15:40:04;;;;;;;7.32;3.83;;;18.90;98.90;;;;;;6248321;28;20059;-65
2022/07/16 15:43:06;;;;;;;5.88;2.20;;;19.00;98.70;;;;;;6247763;28;20402;-65
2022/07/16 15:46:08;;;;;;;6.70;2.83;;;19.30;97.80;;;;;;6239782;28;20050;-65
2022/07/16 15:49:10;;;;;;;5.25;2.70;;;19.40;98.10;;;;;;6223044;28;20053;-65
2022/07/16 15:52:12;;;;;;;3.63;1.90;;;19.40;97.70;;;;;;6223234;28;20132;-65
2022/07/16 15:55:16;;;;;;;5.57;3.28;;;19.40;97.20;;;;;;6222526;28;20077;-65
2022/07/16 15:58:18;;;;;;;3.83;1.65;;;19.60;99.90;;;;;;6243280;28;20057;-65
2022/07/16 16:01:20;;;;;;;7.50;2.88;;;20.00;99.90;;;;;;6221452;28;20054;-65